Time;durP1;ratioP1;P1;durP2;ratioP2;P2;SDS_P1;SDS_P2;PMS_P1;PMS_P2;Temp;Humidity;BMP_temperature;BMP_pressure;BME280_temperature;BME280_humidity;BME280_pressure;Samples;Min_cycle;Max_cycle;Signal;HPM_P1;HPM_P2
2022/03/17 00:00:14;;;;;;;48.85;22.98;;;;;;;0.01;89.38;99502.47;3193026;23;20211;-79
2022/03/17 00:01:49;;;;;;;48.17;21.50;;;;;;;-0.03;89.06;99506.63;3192572;23;20103;-78
2022/03/17 00:03:05;;;;;;;48.97;23.33;;;;;;;-0.02;89.27;99505.81;3192612;23;20021;-81
2022/03/17 00:04:22;;;;;;;51.28;22.65;;;;;;;-0.03;88.91;99504.94;3192870;23;20348;-79
2022/03/17 00:05:38;;;;;;;45.90;22.88;;;;;;;-0.04;88.89;99508.34;3192496;23;20083;-79
2022/03/17 00:06:53;;;;;;;51.40;23.20;;;;;;;-0.08;88.90;99506.47;3192868;23;20544;-80
2022/03/17 00:08:09;;;;;;;43.17;21.73;;;;;;;-0.09;88.89;99503.88;3193012;23;20916;-78
2022/03/17 00:09:25;;;;;;;50.35;22.02;;;;;;;-0.08;88.70;99505.63;3193070;23;20035;-79
2022/03/17 00:10:40;;;;;;;44.72;21.85;;;;;;;-0.06;88.64;99510.00;3193043;23;20021;-79
2022/03/17 00:11:56;;;;;;;43.65;21.98;;;;;;;-0.08;88.30;99506.47;3192395;23;20048;-80
2022/03/17 00:13:11;;;;;;;46.30;21.50;;;;;;;-0.17;88.53;99501.06;3192847;23;20024;-80
2022/03/17 00:14:28;;;;;;;48.47;23.45;;;;;;;-0.17;89.18;99496.75;3193185;23;20036;-80
2022/03/17 00:15:43;;;;;;;49.22;22.02;;;;;;;-0.17;89.71;99501.91;3192813;23;20056;-79
2022/03/17 00:16:59;;;;;;;55.72;24.35;;;;;;;-0.19;89.76;99498.41;3192644;23;20846;-83
2022/03/17 00:18:15;;;;;;;56.08;25.40;;;;;;;-0.19;90.04;99493.28;3192814;23;20051;-80
2022/03/17 00:19:31;;;;;;;49.55;24.95;;;;;;;-0.17;89.87;99499.34;3192716;23;20047;-80
2022/03/17 00:20:47;;;;;;;53.80;25.60;;;;;;;-0.17;89.93;99491.63;3192556;23;20028;-81
2022/03/17 00:22:08;;;;;;;54.13;23.48;;;;;;;-0.15;89.92;99492.53;3192737;23;20021;-91
2022/03/17 00:23:24;;;;;;;49.10;22.45;;;;;;;-0.13;89.65;99494.31;3193237;23;20013;-80
2022/03/17 00:24:40;;;;;;;53.42;24.45;;;;;;;0.03;89.89;99496.53;3192793;23;20044;-85
2022/03/17 00:25:56;;;;;;;50.13;23.63;;;;;;;0.06;89.73;99496.63;3192288;23;20087;-81
2022/03/17 00:27:11;;;;;;;51.10;24.50;;;;;;;-0.08;89.29;99492.75;3193042;23;20025;-85
2022/03/17 00:28:27;;;;;;;55.67;25.08;;;;;;;-0.14;89.22;99490.84;3192611;23;20017;-79
2022/03/17 00:29:43;;;;;;;52.22;24.10;;;;;;;-0.11;88.98;99490.09;3192823;23;20013;-81
2022/03/17 00:30:59;;;;;;;53.10;25.27;;;;;;;-0.14;88.99;99493.41;3192242;23;20021;-79
2022/03/17 00:32:15;;;;;;;53.28;24.65;;;;;;;-0.09;89.82;99485.84;3197660;23;20020;-80
2022/03/17 00:33:30;;;;;;;56.13;25.45;;;;;;;-0.12;89.45;99488.34;3193022;23;20025;-80
2022/03/17 00:36:20;;;;;;;48.40;24.15;;;;;;;-0.18;88.98;99478.72;3192783;23;20013;-80
2022/03/17 00:37:36;;;;;;;46.10;23.60;;;;;;;-0.21;88.91;99484.63;3192559;23;20024;-83
2022/03/17 00:38:51;;;;;;;48.25;24.23;;;;;;;-0.22;88.89;99479.41;3193087;23;20025;-79
2022/03/17 00:40:07;;;;;;;52.97;23.88;;;;;;;-0.24;88.92;99484.53;3192827;23;20522;-81
2022/03/17 00:41:23;;;;;;;48.33;22.83;;;;;;;-0.24;88.56;99486.22;3192559;23;20091;-81
2022/03/17 00:42:39;;;;;;;51.00;24.40;;;;;;;-0.29;88.59;99488.63;3192696;23;20404;-80
2022/03/17 00:43:54;;;;;;;49.60;23.90;;;;;;;-0.31;88.61;99490.28;3192812;23;20028;-78
2022/03/17 00:45:12;;;;;;;48.03;22.65;;;;;;;-0.36;88.47;99490.13;3192595;23;20017;-78
2022/03/17 00:46:28;;;;;;;51.30;22.75;;;;;;;-0.40;88.73;99484.88;3192448;23;20021;-78
2022/03/17 00:47:43;;;;;;;53.78;24.65;;;;;;;-0.36;88.74;99491.84;3192652;23;20095;-78
2022/03/17 00:48:59;;;;;;;57.05;24.90;;;;;;;-0.38;89.18;99485.78;3192789;23;20099;-81
2022/03/17 00:50:15;;;;;;;50.97;24.15;;;;;;;-0.48;89.33;99495.75;3192618;23;20024;-78
2022/03/17 00:51:31;;;;;;;54.30;24.77;;;;;;;-0.48;89.00;99500.03;3192737;23;20029;-79
2022/03/17 00:52:46;;;;;;;56.63;24.95;;;;;;;-0.51;88.86;99498.22;3192691;23;20048;-79
2022/03/17 00:54:03;;;;;;;50.58;24.27;;;;;;;-0.48;89.32;99500.91;3192547;23;20017;-79
2022/03/17 00:55:20;;;;;;;54.20;23.35;;;;;;;-0.45;88.93;99503.56;3192300;23;20092;-79
2022/03/17 00:56:35;;;;;;;53.65;24.55;;;;;;;-0.48;88.68;99500.03;3191095;23;20382;-86
2022/03/17 00:57:51;;;;;;;49.38;23.88;;;;;;;-0.53;88.62;99499.00;3192565;23;20021;-80
2022/03/17 00:59:07;;;;;;;52.63;24.00;;;;;;;-0.53;88.58;99502.47;3192669;23;20071;-79
2022/03/17 01:00:22;;;;;;;54.47;24.27;;;;;;;-0.49;88.62;99508.56;3192675;23;20368;-78
2022/03/17 01:01:38;;;;;;;52.05;24.98;;;;;;;-0.49;88.99;99508.56;3192457;23;20017;-79
2022/03/17 01:02:56;;;;;;;50.80;23.30;;;;;;;-0.50;88.64;99507.69;3192753;23;20017;-78
2022/03/17 01:04:11;;;;;;;49.58;23.15;;;;;;;-0.52;88.31;99508.47;3192491;23;20025;-79
2022/03/17 01:05:27;;;;;;;57.70;25.23;;;;;;;-0.52;88.75;99505.88;3192711;23;20344;-79
2022/03/17 01:06:42;;;;;;;52.00;24.42;;;;;;;-0.48;88.07;99500.03;3192588;23;20333;-79
2022/03/17 01:07:58;;;;;;;50.28;25.08;;;;;;;-0.53;88.34;99492.16;3192623;23;20020;-79
2022/03/17 01:09:14;;;;;;;54.60;24.67;;;;;;;-0.51;88.55;99489.63;3192779;23;20021;-80
2022/03/17 01:10:29;;;;;;;51.80;24.20;;;;;;;-0.53;88.41;99489.59;3192583;23;20047;-81
2022/03/17 01:11:46;;;;;;;54.78;24.63;;;;;;;-0.53;88.29;99491.28;3191824;23;20021;-79
2022/03/17 01:13:03;;;;;;;57.22;26.08;;;;;;;-0.54;88.71;99490.41;3192475;23;20025;-79
2022/03/17 01:14:18;;;;;;;57.17;26.55;;;;;;;-0.58;89.29;99491.13;3176439;23;20460;-80
2022/03/17 01:15:34;;;;;;;60.60;26.25;;;;;;;-0.61;89.60;99488.44;3182650;23;20036;-80
2022/03/17 01:16:50;;;;;;;59.13;25.80;;;;;;;-0.59;89.82;99497.09;3193032;23;20081;-79
2022/03/17 01:18:05;;;;;;;58.10;25.95;;;;;;;-0.57;89.39;99490.28;3192520;23;20025;-79
2022/03/17 01:19:21;;;;;;;52.47;24.42;;;;;;;-0.60;89.14;99490.19;3192771;23;20021;-81
2022/03/17 01:20:37;;;;;;;48.83;23.38;;;;;;;-0.67;88.80;99498.53;3192507;23;20013;-79
2022/03/17 01:21:52;;;;;;;55.38;23.67;;;;;;;-0.67;88.66;99498.53;3192453;23;20064;-78
2022/03/17 01:23:08;;;;;;;51.28;23.45;;;;;;;-0.64;88.48;99490.94;3192507;23;20020;-78
2022/03/17 01:24:24;;;;;;;46.80;21.35;;;;;;;-0.66;88.38;99492.56;3192660;23;20017;-80
2022/03/17 01:25:40;;;;;;;52.83;23.20;;;;;;;-0.67;88.12;99480.53;3192554;23;20021;-79
2022/03/17 01:26:55;;;;;;;53.05;24.27;;;;;;;-0.63;88.25;99480.69;3192532;23;20017;-80
2022/03/17 01:28:11;;;;;;;51.60;24.20;;;;;;;-0.67;88.42;99478.81;3192113;23;20048;-81
2022/03/17 01:29:26;;;;;;;47.75;23.15;;;;;;;-0.67;88.27;99481.41;3192237;23;20021;-79
2022/03/17 01:30:42;;;;;;;48.25;23.98;;;;;;;-0.71;88.77;99476.97;3192386;23;20053;-79
2022/03/17 01:31:58;;;;;;;54.67;23.33;;;;;;;-0.69;88.60;99472.75;3191882;23;20445;-79
2022/03/17 01:33:13;;;;;;;54.28;24.42;;;;;;;-0.69;88.87;99479.63;3192141;23;20024;-78
2022/03/17 01:34:29;;;;;;;55.22;25.17;;;;;;;-0.68;88.98;99481.38;3192481;23;20021;-79
2022/03/17 01:35:44;;;;;;;54.58;24.02;;;;;;;-0.67;89.39;99472.81;3192434;23;20028;-82
2022/03/17 01:37:00;;;;;;;58.20;24.58;;;;;;;-0.61;90.01;99479.06;3192261;23;20494;-80
2022/03/17 01:38:16;;;;;;;56.58;24.58;;;;;;;-0.34;90.56;99474.75;3192286;23;20475;-79
2022/03/17 01:39:31;;;;;;;51.70;24.45;;;;;;;-0.48;89.79;99472.59;3192482;23;20031;-83
2022/03/17 01:40:47;;;;;;;59.83;25.17;;;;;;;-0.61;89.39;99473.03;3192289;23;20017;-79
2022/03/17 01:42:05;;;;;;;56.67;24.40;;;;;;;-0.74;89.40;99475.16;3192561;23;20021;-79
2022/03/17 01:43:22;;;;;;;65.15;26.20;;;;;;;-0.73;89.75;99470.91;3192502;23;20468;-78
2022/03/17 01:44:38;;;;;;;62.45;26.95;;;;;;;-0.75;89.56;99475.13;3192244;23;20024;-82
2022/03/17 01:45:54;;;;;;;62.25;26.00;;;;;;;-0.79;90.21;99475.81;3192562;23;20044;-79
2022/03/17 01:47:28;;;;;;;56.78;24.77;;;;;;;-0.70;90.38;99473.59;3192500;23;20021;-82
2022/03/17 01:48:43;;;;;;;59.35;25.48;;;;;;;-0.62;90.93;99476.41;3192448;23;20072;-82
2022/03/17 01:50:03;;;;;;;58.35;25.10;;;;;;;-0.62;90.65;99476.41;3192198;23;20456;-79
2022/03/17 01:51:19;;;;;;;55.38;25.77;;;;;;;-0.64;90.45;99472.91;3192271;23;20082;-79
2022/03/17 01:52:35;;;;;;;52.85;24.83;;;;;;;-0.70;90.20;99476.16;3192225;23;20021;-79
2022/03/17 01:53:50;;;;;;;53.40;24.15;;;;;;;-0.73;89.95;99479.50;3192640;23;20017;-79
2022/03/17 01:55:08;;;;;;;63.03;26.85;;;;;;;-0.76;90.36;99474.25;3192640;23;20817;-82
2022/03/17 01:56:23;;;;;;;61.00;24.45;;;;;;;-0.76;89.95;99470.81;3192524;23;20446;-80
2022/03/17 01:57:39;;;;;;;60.92;26.33;;;;;;;-0.76;90.29;99475.97;3192346;23;20021;-79
2022/03/17 01:58:55;;;;;;;59.78;25.95;;;;;;;-0.77;90.26;99479.31;3192177;23;20018;-79
2022/03/17 02:00:14;;;;;;;53.47;24.00;;;;;;;-0.78;89.85;99475.00;3192653;23;20028;-82
2022/03/17 02:01:30;;;;;;;58.67;25.58;;;;;;;-0.80;89.68;99477.53;3192249;23;20742;-82
2022/03/17 02:02:48;;;;;;;56.38;23.75;;;;;;;-0.85;89.62;99476.50;3192563;23;20111;-81
2022/03/17 02:04:03;;;;;;;52.67;24.05;;;;;;;-0.84;89.70;99485.09;3192487;23;20554;-80
2022/03/17 02:05:20;;;;;;;56.05;25.17;;;;;;;-0.87;89.56;99491.00;3194219;23;20059;-79
2022/03/17 02:06:37;;;;;;;54.35;23.63;;;;;;;-0.90;89.62;99485.75;3194098;23;20416;-81
2022/03/17 02:07:53;;;;;;;54.85;23.38;;;;;;;-0.97;89.53;99479.50;3194183;23;20455;-79
2022/03/17 02:09:08;;;;;;;52.47;24.25;;;;;;;-0.98;89.46;99479.44;3193823;23;20451;-79
2022/03/17 02:10:24;;;;;;;53.67;23.17;;;;;;;-1.01;89.61;99483.66;3194514;23;20091;-79
2022/03/17 02:13:14;;;;;;;50.10;22.60;;;;;;;-1.03;89.85;99485.31;3192590;23;20021;-80
2022/03/17 02:14:34;;;;;;;56.45;24.50;;;;;;;-1.00;89.55;99489.69;3192231;23;20318;-81
2022/03/17 02:15:52;;;;;;;52.33;23.48;;;;;;;-1.01;89.36;99488.81;3191708;23;20018;-79
2022/03/17 02:17:07;;;;;;;55.85;24.05;;;;;;;-1.01;89.47;99487.94;3192484;23;20021;-79
2022/03/17 02:18:23;;;;;;;49.72;22.65;;;;;;;-1.00;89.68;99488.00;3192136;23;20017;-79
2022/03/17 02:19:38;;;;;;;54.47;24.13;;;;;;;-1.00;89.64;99485.41;3192750;23;20043;-79
2022/03/17 02:20:57;;;;;;;53.60;22.80;;;;;;;-0.97;88.98;99494.94;3192039;23;20021;-79
2022/03/17 02:22:16;;;;;;;49.53;22.15;;;;;;;-0.94;89.13;99492.47;3192236;23;20432;-80
2022/03/17 02:26:40;;;;;;;49.30;22.17;;;;;;;-1.01;89.13;99483.66;3192488;23;20021;-80
2022/03/17 02:27:58;;;;;;;54.25;23.17;;;;;;;-1.07;89.10;99482.56;3193138;23;20016;-79
2022/03/17 02:29:13;;;;;;;47.30;22.35;;;;;;;-1.15;89.02;99490.91;3176579;23;20579;-80
2022/03/17 02:30:30;;;;;;;53.25;23.15;;;;;;;-1.14;88.94;99484.94;3183278;23;20063;-80
2022/03/17 02:31:46;;;;;;;57.13;23.30;;;;;;;-1.15;89.01;99488.31;3192925;23;20029;-80
2022/03/17 02:33:08;;;;;;;54.58;22.95;;;;;;;-1.15;89.10;99484.88;3193018;23;20028;-80
2022/03/17 02:34:24;;;;;;;57.15;24.23;;;;;;;-1.17;89.50;99487.41;3193340;23;20447;-80
2022/03/17 02:35:41;;;;;;;59.40;24.80;;;;;;;-1.14;89.40;99489.19;3193198;23;20017;-80
2022/03/17 02:36:57;;;;;;;58.17;23.75;;;;;;;-1.11;89.61;99494.47;3193174;23;20021;-83
2022/03/17 02:38:13;;;;;;;61.15;26.13;;;;;;;-1.07;89.56;99488.59;3192909;23;20021;-79
2022/03/17 02:39:29;;;;;;;63.33;25.02;;;;;;;-1.04;89.77;99495.56;3193424;23;20340;-80
2022/03/17 02:40:51;;;;;;;60.78;24.80;;;;;;;-1.03;90.52;99490.44;3193431;23;20021;-79
2022/03/17 02:42:08;;;;;;;;;;;;;;;-1.00;90.71;99488.00;3194162;23;20021;-79
2022/03/17 02:43:23;;;;;;;55.55;22.65;;;;;;;-0.95;91.32;99492.44;3192695;23;19927;-80
2022/03/17 02:44:39;;;;;;;67.75;26.48;;;;;;;-0.91;91.75;99491.72;3193505;23;20456;-80
2022/03/17 02:45:55;;;;;;;67.93;27.95;;;;;;;-0.88;91.96;99491.81;3193438;23;20021;-80
2022/03/17 02:47:11;;;;;;;69.45;27.83;;;;;;;-0.90;91.98;99498.59;3193375;23;20028;-79
2022/03/17 02:48:26;;;;;;;70.05;28.75;;;;;;;-0.92;91.96;99492.53;3192980;23;20024;-80
2022/03/17 02:49:42;;;;;;;69.60;27.40;;;;;;;-0.91;91.85;99490.03;3193219;23;20017;-79
2022/03/17 02:50:57;;;;;;;67.82;27.63;;;;;;;-0.91;91.75;99496.84;3192822;23;20021;-79
2022/03/17 02:52:13;;;;;;;60.58;25.75;;;;;;;-0.95;91.80;99489.88;3193245;23;20052;-80
2022/03/17 02:53:29;;;;;;;65.03;28.00;;;;;;;-0.96;91.79;99495.84;3193240;23;20456;-79
2022/03/17 02:54:44;;;;;;;67.18;26.52;;;;;;;-0.97;91.80;99496.66;3193295;23;20125;-80
2022/03/17 02:56:00;;;;;;;71.47;29.65;;;;;;;-1.01;91.49;99493.09;3192991;23;20262;-79
2022/03/17 02:57:16;;;;;;;66.50;26.75;;;;;;;-0.94;91.68;99496.75;3193099;23;20031;-79
2022/03/17 02:58:33;;;;;;;54.65;25.33;;;;;;;-0.90;91.66;99498.59;3192946;23;20567;-79
2022/03/17 02:59:49;;;;;;;63.70;26.73;;;;;;;-0.93;91.44;99495.94;3193253;23;20021;-80
2022/03/17 03:01:04;;;;;;;62.55;27.10;;;;;;;-0.90;91.26;99507.22;3193024;23;20397;-78
2022/03/17 03:02:21;;;;;;;61.72;27.50;;;;;;;-0.92;91.37;99501.09;3192866;23;20016;-79
2022/03/17 03:03:37;;;;;;;65.40;28.42;;;;;;;-0.95;90.88;99503.56;3193171;23;20017;-78
2022/03/17 03:04:52;;;;;;;65.20;27.20;;;;;;;-0.97;90.93;99507.78;3193486;23;20443;-82
2022/03/17 03:06:08;;;;;;;59.15;26.40;;;;;;;-1.00;90.66;99503.41;3193543;23;20100;-80
2022/03/17 03:07:24;;;;;;;65.63;27.90;;;;;;;-1.01;90.88;99509.38;3192962;23;20028;-79
2022/03/17 03:08:39;;;;;;;64.05;26.30;;;;;;;-1.02;90.54;99507.63;3192602;23;20017;-80
2022/03/17 03:09:55;;;;;;;60.80;25.98;;;;;;;-1.04;90.71;99509.28;3193070;23;20352;-79
2022/03/17 03:11:11;;;;;;;55.80;24.98;;;;;;;-1.09;90.49;99505.66;3192855;23;20021;-79
2022/03/17 03:12:26;;;;;;;58.30;25.73;;;;;;;-1.08;90.24;99502.28;3192798;23;20041;-79
2022/03/17 03:13:44;;;;;;;51.20;23.50;;;;;;;-1.09;90.05;99500.53;3192768;23;20024;-78
2022/03/17 03:15:00;;;;;;;55.17;23.55;;;;;;;-1.09;89.67;99505.66;3192914;23;20021;-78
2022/03/17 03:16:15;;;;;;;59.00;24.65;;;;;;;-1.12;89.61;99500.38;3193006;23;20092;-79
2022/03/17 03:17:31;;;;;;;57.60;25.67;;;;;;;-1.15;89.93;99495.16;3192323;23;20023;-79
2022/03/17 03:18:47;;;;;;;61.85;25.40;;;;;;;-1.17;90.03;99499.38;3192890;23;20436;-78
2022/03/17 03:20:03;;;;;;;57.53;24.20;;;;;;;-1.22;90.01;99499.19;3193132;23;20025;-79
2022/03/17 03:21:19;;;;;;;61.70;26.10;;;;;;;-1.23;90.52;99497.44;3192704;23;20024;-78
2022/03/17 03:22:39;;;;;;;64.25;26.10;;;;;;;-1.23;90.28;99491.44;3193163;23;20052;-79
2022/03/17 03:23:55;;;;;;;55.28;25.17;;;;;;;-1.24;90.42;99493.13;3193098;23;20444;-82
2022/03/17 03:25:10;;;;;;;55.92;25.05;;;;;;;-1.25;89.95;99493.94;3193064;23;20020;-79
2022/03/17 03:26:26;;;;;;;57.08;23.73;;;;;;;-1.29;89.95;99494.66;3192814;23;20040;-79
2022/03/17 03:27:43;;;;;;;57.45;25.48;;;;;;;-1.30;89.94;99492.91;3192950;23;20028;-79
2022/03/17 03:28:58;;;;;;;57.03;25.42;;;;;;;-1.30;89.88;99490.34;3192848;23;20564;-79
2022/03/17 03:30:14;;;;;;;61.05;26.13;;;;;;;-1.31;90.19;99493.72;3193377;23;20017;-79
2022/03/17 03:31:30;;;;;;;51.45;23.38;;;;;;;-1.32;89.91;99492.84;3192630;23;20072;-79
2022/03/17 03:32:47;;;;;;;54.55;23.77;;;;;;;-1.36;89.73;99498.69;3193041;23;20448;-79
2022/03/17 03:34:03;;;;;;;54.92;23.42;;;;;;;-1.44;89.72;99497.53;3193231;23;20042;-79
2022/03/17 03:38:28;;;;;;;51.13;23.02;;;;;;;-1.44;90.10;99500.09;3192256;23;20017;-79
2022/03/17 03:39:44;;;;;;;60.85;26.10;;;;;;;-1.25;91.37;99496.53;3192579;23;20021;-79
2022/03/17 03:41:01;;;;;;;63.63;26.08;;;;;;;-1.30;91.52;99498.91;3193163;23;20861;-79
2022/03/17 03:42:16;;;;;;;64.28;26.73;;;;;;;-1.36;92.05;99506.41;3192948;23;20017;-79
2022/03/17 03:43:32;;;;;;;65.20;26.00;;;;;;;-1.31;91.96;99504.88;3192937;23;20028;-79
2022/03/17 03:44:48;;;;;;;59.20;25.83;;;;;;;-1.26;91.70;99499.91;3193237;23;20024;-78
2022/03/17 03:46:03;;;;;;;59.97;25.73;;;;;;;-1.27;91.59;99493.03;3192940;23;20092;-78
2022/03/17 03:47:19;;;;;;;57.20;25.23;;;;;;;-1.31;90.82;99496.31;3192646;23;20040;-81
2022/03/17 03:48:35;;;;;;;51.15;23.05;;;;;;;-1.36;90.30;99498.69;3193199;23;20424;-80
2022/03/17 03:49:51;;;;;;;60.10;25.25;;;;;;;-1.42;90.43;99488.19;3192493;23;20021;-80
2022/03/17 03:51:07;;;;;;;56.70;24.73;;;;;;;-1.46;90.04;99488.88;3192835;23;20059;-79
2022/03/17 03:52:22;;;;;;;57.50;25.67;;;;;;;-1.47;90.06;99492.28;3193028;23;20383;-78
2022/03/17 03:55:32;;;;;;;53.45;23.25;;;;;;;-1.45;90.00;99485.50;3145544;23;20109;-79
2022/03/17 03:56:53;;;;;;;53.80;23.33;;;;;;;-1.44;89.92;99487.25;3145324;23;20025;-78
2022/03/17 03:58:09;;;;;;;55.05;23.45;;;;;;;-1.47;89.89;99489.72;3145658;23;20018;-78
2022/03/17 03:59:29;;;;;;;60.90;24.33;;;;;;;-1.46;89.76;99488.88;3145338;23;20049;-78
2022/03/17 04:00:44;;;;;;;64.35;25.58;;;;;;;-1.44;89.80;99489.81;3155859;23;20033;-78
2022/03/17 04:02:04;;;;;;;61.25;24.23;;;;;;;-1.44;89.93;99495.84;3192764;23;20020;-79
2022/03/17 04:03:19;;;;;;;60.47;24.80;;;;;;;-1.48;89.83;99485.41;3192696;23;20047;-82
2022/03/17 04:04:36;;;;;;;57.85;24.73;;;;;;;-1.47;89.85;99482.88;3192467;23;20045;-78
2022/03/17 04:05:52;;;;;;;54.50;22.60;;;;;;;-1.47;89.67;99485.44;3192209;23;20100;-81
2022/03/17 04:07:09;;;;;;;60.35;24.08;;;;;;;-1.49;89.38;99473.38;3192431;23;20021;-80
2022/03/17 04:08:24;;;;;;;56.28;22.98;;;;;;;-1.50;89.48;99477.63;3192688;23;20448;-79
2022/03/17 04:09:41;;;;;;;60.78;25.45;;;;;;;-1.50;90.11;99474.19;3192799;23;20152;-81
2022/03/17 04:10:57;;;;;;;57.67;24.20;;;;;;;-1.52;90.19;99473.28;3192119;23;20025;-78
2022/03/17 04:12:14;;;;;;;59.10;23.98;;;;;;;-1.51;90.08;99475.00;3192277;23;20017;-79
2022/03/17 04:13:29;;;;;;;56.63;25.08;;;;;;;-1.48;90.22;99475.13;3192077;23;20013;-79
2022/03/17 04:14:45;;;;;;;58.63;24.25;;;;;;;-1.47;90.00;99477.72;3192470;23;20183;-83
2022/03/17 04:16:01;;;;;;;58.15;23.38;;;;;;;-1.46;90.05;99481.19;3192558;23;20036;-81
2022/03/17 04:17:16;;;;;;;62.80;24.90;;;;;;;-1.47;89.84;99482.88;3192414;23;20039;-79
2022/03/17 04:18:32;;;;;;;55.97;23.88;;;;;;;-1.46;89.99;99479.50;3192313;23;20021;-79
2022/03/17 04:19:47;;;;;;;55.75;23.58;;;;;;;-1.43;89.63;99483.88;3176520;23;20133;-81
2022/03/17 04:21:03;;;;;;;54.05;23.55;;;;;;;-1.44;89.72;99484.69;3182411;23;20021;-79
2022/03/17 04:22:18;;;;;;;56.78;24.10;;;;;;;-1.43;89.76;99489.00;3192517;23;20017;-80
2022/03/17 04:23:34;;;;;;;58.25;23.60;;;;;;;-1.42;89.42;99491.63;3192271;23;20518;-80
2022/03/17 04:24:49;;;;;;;55.05;24.30;;;;;;;-1.46;89.12;99486.31;3192244;23;20021;-79
2022/03/17 04:26:05;;;;;;;53.85;23.05;;;;;;;-1.50;89.41;99485.31;3192352;23;20024;-79
2022/03/17 04:27:21;;;;;;;55.30;23.38;;;;;;;-1.48;89.77;99490.53;3192739;23;20013;-79
2022/03/17 04:28:36;;;;;;;54.97;24.02;;;;;;;-1.52;89.53;99486.97;3192504;23;20576;-83
2022/03/17 04:29:52;;;;;;;55.67;22.90;;;;;;;-1.51;90.01;99493.00;3192578;23;20514;-81
2022/03/17 04:31:08;;;;;;;59.90;24.38;;;;;;;-1.53;90.01;99497.19;3192043;23;20032;-77
2022/03/17 04:32:24;;;;;;;59.35;24.38;;;;;;;-1.52;90.51;99496.38;3192794;23;20021;-80
2022/03/17 04:33:39;;;;;;;58.08;24.73;;;;;;;-1.54;90.29;99498.88;3192959;23;20021;-80
2022/03/17 04:34:55;;;;;;;59.00;24.73;;;;;;;-1.54;90.71;99498.88;3192424;23;20025;-80
2022/03/17 04:36:11;;;;;;;75.75;28.25;;;;;;;-1.51;91.58;99496.41;3189886;23;20356;-80
2022/03/17 04:37:26;;;;;;;71.88;28.77;;;;;;;-1.46;91.90;99504.31;3192573;23;20820;-78
2022/03/17 04:38:42;;;;;;;69.85;28.20;;;;;;;-1.48;92.38;99495.66;3192257;23;20048;-83
2022/03/17 04:39:58;;;;;;;72.60;27.80;;;;;;;-1.49;92.55;99501.63;3192731;23;20580;-77
2022/03/17 04:41:15;;;;;;;66.13;26.20;;;;;;;-1.49;92.18;99502.47;3175333;23;20056;-79
2022/03/17 04:42:30;;;;;;;68.45;25.98;;;;;;;-1.50;92.49;99505.88;3182660;23;20790;-78
2022/03/17 04:43:46;;;;;;;65.85;26.88;;;;;;;-1.47;92.52;99508.56;3192439;23;20056;-79
2022/03/17 04:45:02;;;;;;;62.03;24.60;;;;;;;-1.37;92.64;99508.91;3191959;23;20412;-78
2022/03/17 04:46:18;;;;;;;63.20;25.55;;;;;;;-1.41;91.94;99507.91;3191743;23;20020;-79
2022/03/17 04:47:33;;;;;;;66.57;26.35;;;;;;;-1.51;92.27;99516.97;3191891;23;20601;-80
2022/03/17 04:48:49;;;;;;;62.80;25.45;;;;;;;-1.48;92.45;99511.06;3192519;23;20028;-79
2022/03/17 04:50:05;;;;;;;63.97;26.23;;;;;;;-1.49;92.12;99511.91;3192218;23;20352;-79
2022/03/17 04:51:21;;;;;;;66.82;27.83;;;;;;;-1.49;91.95;99514.47;3190928;23;20017;-78
2022/03/17 04:54:11;;;;;;;67.35;25.77;;;;;;;-1.57;92.03;99517.59;3192739;23;20101;-79
2022/03/17 04:55:26;;;;;;;69.40;27.35;;;;;;;-1.60;92.05;99517.50;3192564;23;20361;-79
2022/03/17 04:56:42;;;;;;;68.10;25.92;;;;;;;-1.60;92.32;99514.06;3192487;23;20024;-78
2022/03/17 04:57:59;;;;;;;71.38;28.38;;;;;;;-1.63;92.09;99519.06;3192886;23;20096;-80
2022/03/17 04:59:14;;;;;;;68.88;26.77;;;;;;;-1.62;92.22;99513.09;3192451;23;20025;-79
2022/03/17 05:00:30;;;;;;;66.13;26.60;;;;;;;-1.64;92.48;99520.78;3192628;23;20020;-79
2022/03/17 05:01:46;;;;;;;66.28;25.60;;;;;;;-1.63;92.24;99519.94;3192573;23;20471;-78
2022/03/17 05:03:01;;;;;;;64.00;24.40;;;;;;;-1.60;92.32;99514.94;3193038;23;20091;-78
2022/03/17 05:04:17;;;;;;;69.70;27.13;;;;;;;-1.60;92.21;99525.19;3192381;23;20388;-79
2022/03/17 05:05:32;;;;;;;73.72;26.23;;;;;;;-1.56;92.27;99516.78;3192268;23;20075;-79
2022/03/17 05:06:48;;;;;;;76.65;27.70;;;;;;;-1.54;92.75;99519.44;3191342;23;20021;-79
2022/03/17 05:08:05;;;;;;;72.82;27.80;;;;;;;-1.52;92.87;99515.22;3191377;23;20055;-78
2022/03/17 05:09:21;;;;;;;80.93;29.55;;;;;;;-1.49;92.67;99515.31;3191244;23;20492;-78
2022/03/17 05:10:38;;;;;;;69.57;27.75;;;;;;;-1.51;92.67;99516.09;3192184;23;20021;-80
2022/03/17 05:11:54;;;;;;;72.25;27.77;;;;;;;-1.52;92.78;99515.22;3192578;23;20017;-79
2022/03/17 05:13:11;;;;;;;71.32;29.38;;;;;;;-1.50;92.79;99505.88;3193401;23;20021;-79
2022/03/17 05:14:26;;;;;;;68.82;28.17;;;;;;;-1.50;92.54;99512.72;3193789;23;20369;-79
2022/03/17 05:15:42;;;;;;;70.65;28.35;;;;;;;-1.53;92.56;99515.19;3193483;23;20317;-78
2022/03/17 05:16:58;;;;;;;67.20;27.25;;;;;;;-1.59;92.37;99519.25;3176826;23;20129;-79
2022/03/17 05:18:13;;;;;;;74.43;28.58;;;;;;;-1.59;91.87;99520.94;3182284;23;20027;-79
2022/03/17 05:19:29;;;;;;;71.22;29.05;;;;;;;-1.62;92.49;99519.13;3192422;23;20463;-79
2022/03/17 05:20:45;;;;;;;68.28;28.45;;;;;;;-1.50;91.57;99523.84;3192465;23;20025;-78
2022/03/17 05:22:02;;;;;;;71.70;28.63;;;;;;;-1.47;91.65;99516.25;3191997;23;20036;-79
2022/03/17 05:23:19;;;;;;;71.93;28.55;;;;;;;-1.47;91.14;99525.66;3192316;23;20395;-79
2022/03/17 05:24:35;;;;;;;64.97;27.08;;;;;;;-1.44;90.78;99515.50;3192296;23;20386;-78
2022/03/17 05:25:51;;;;;;;64.93;27.65;;;;;;;-1.50;90.98;99520.44;3192404;23;20017;-80
2022/03/17 05:27:06;;;;;;;66.13;27.27;;;;;;;-1.54;90.69;99526.25;3192007;23;20075;-79
2022/03/17 05:28:22;;;;;;;65.22;27.70;;;;;;;-1.59;91.34;99523.53;3192079;23;20029;-79
2022/03/17 05:29:37;;;;;;;59.95;26.13;;;;;;;-1.62;91.32;99523.38;3191224;23;20021;-79
2022/03/17 05:30:54;;;;;;;67.20;28.15;;;;;;;-1.61;91.47;99530.25;3192225;23;20452;-79
2022/03/17 05:32:09;;;;;;;62.55;26.88;;;;;;;-1.62;91.21;99529.41;3192365;23;20017;-79
2022/03/17 05:33:25;;;;;;;65.07;25.88;;;;;;;-1.63;91.01;99525.09;3192377;23;20087;-81
2022/03/17 05:34:41;;;;;;;65.28;26.55;;;;;;;-1.66;91.39;99529.22;3191892;23;20017;-80
2022/03/17 05:35:56;;;;;;;59.20;25.20;;;;;;;-1.66;91.37;99535.25;3191955;23;20100;-79
2022/03/17 05:37:12;;;;;;;68.35;27.95;;;;;;;-1.66;91.11;99529.22;3192106;23;20056;-79
2022/03/17 05:38:28;;;;;;;61.88;25.90;;;;;;;-1.66;91.08;99526.66;3190956;23;20021;-81
2022/03/17 05:39:43;;;;;;;63.90;26.00;;;;;;;-1.69;90.97;99527.41;3175679;23;20064;-80
2022/03/17 05:41:00;;;;;;;57.50;24.95;;;;;;;-1.70;91.25;99533.34;3182383;23;20047;-79
2022/03/17 05:42:16;;;;;;;60.38;23.38;;;;;;;-1.68;91.52;99521.44;3191799;23;20021;-79
2022/03/17 05:43:32;;;;;;;70.93;26.30;;;;;;;-1.69;91.44;99532.53;3192294;23;20055;-82
2022/03/17 05:44:47;;;;;;;57.33;24.60;;;;;;;-1.71;91.44;99529.03;3192433;23;20025;-80
2022/03/17 05:46:03;;;;;;;61.33;24.20;;;;;;;-1.73;91.36;99533.25;3191743;23;20052;-80
2022/03/17 05:47:18;;;;;;;59.70;25.40;;;;;;;-1.72;91.08;99535.00;3191459;23;20017;-79
2022/03/17 05:48:34;;;;;;;62.97;23.17;;;;;;;-1.73;90.86;99526.44;3192483;23;20017;-79
2022/03/17 05:49:50;;;;;;;62.47;24.42;;;;;;;-1.71;91.19;99523.91;3192211;23;20037;-82
2022/03/17 05:51:05;;;;;;;59.20;24.73;;;;;;;-1.67;91.48;99524.91;3192202;23;20457;-82
2022/03/17 05:52:21;;;;;;;65.80;25.73;;;;;;;-1.68;91.29;99524.00;3192383;23;20039;-81
2022/03/17 05:53:37;;;;;;;65.35;25.52;;;;;;;-1.68;91.31;99521.44;3192424;23;20329;-81
2022/03/17 05:54:52;;;;;;;65.07;25.20;;;;;;;-1.66;91.24;99522.41;3192696;23;20017;-80
2022/03/17 05:56:08;;;;;;;64.10;25.25;;;;;;;-1.62;91.37;99519.13;3191909;23;20361;-81
2022/03/17 05:57:23;;;;;;;69.53;27.48;;;;;;;-1.52;91.47;99525.50;3191935;23;20519;-80
2022/03/17 05:58:39;;;;;;;64.32;26.25;;;;;;;-1.42;91.34;99526.72;3192155;23;20017;-80
2022/03/17 05:59:55;;;;;;;63.97;25.38;;;;;;;-1.32;91.86;99523.69;3191178;23;20028;-80
2022/03/17 06:01:11;;;;;;;66.03;26.02;;;;;;;-1.23;92.25;99524.84;3191486;23;20017;-82
2022/03/17 06:02:27;;;;;;;64.72;25.75;;;;;;;-1.21;91.63;99530.91;3192144;23;20380;-80